sensor_id;sensor_type;location;lat;lon;timestamp;pressure;altitude;pressure_sealevel;temperature;humidity
16525;BME280;8375;33.594;-117.718;2023-05-07T00:02:00;100532.06;;;20.13;49.67
16525;BME280;8375;33.594;-117.718;2023-05-07T00:04:29;100528.22;;;19.92;46.71
16525;BME280;8375;33.594;-117.718;2023-05-07T00:07:04;100522.97;;;19.84;47.92
16525;BME280;8375;33.594;-117.718;2023-05-07T00:09:33;100524.25;;;19.88;49.04
16525;BME280;8375;33.594;-117.718;2023-05-07T00:12:01;100530.66;;;20.02;51.27
16525;BME280;8375;33.594;-117.718;2023-05-07T00:14:30;100523.25;;;19.97;49.40
16525;BME280;8375;33.594;-117.718;2023-05-07T00:16:59;100521.34;;;19.74;47.46
16525;BME280;8375;33.594;-117.718;2023-05-07T00:19:28;100525.22;;;19.55;49.78
16525;BME280;8375;33.594;-117.718;2023-05-07T00:21:56;100528.34;;;19.50;50.45
16525;BME280;8375;33.594;-117.718;2023-05-07T00:24:27;100530.66;;;19.45;49.37
16525;BME280;8375;33.594;-117.718;2023-05-07T00:26:55;100532.47;;;19.45;50.16
16525;BME280;8375;33.594;-117.718;2023-05-07T00:29:24;100533.97;;;19.31;50.37
16525;BME280;8375;33.594;-117.718;2023-05-07T00:31:53;100532.69;;;19.10;49.38
16525;BME280;8375;33.594;-117.718;2023-05-07T00:34:22;100527.41;;;18.94;50.63
16525;BME280;8375;33.594;-117.718;2023-05-07T00:36:50;100531.56;;;19.04;50.49
16525;BME280;8375;33.594;-117.718;2023-05-07T00:39:20;100534.00;;;19.06;50.77
16525;BME280;8375;33.594;-117.718;2023-05-07T00:41:50;100531.22;;;18.83;49.68
16525;BME280;8375;33.594;-117.718;2023-05-07T00:44:19;100530.56;;;18.89;50.18
16525;BME280;8375;33.594;-117.718;2023-05-07T00:46:48;100529.22;;;18.93;51.38
16525;BME280;8375;33.594;-117.718;2023-05-07T00:49:17;100526.28;;;18.80;50.70
16525;BME280;8375;33.594;-117.718;2023-05-07T00:51:47;100534.31;;;18.61;52.45
16525;BME280;8375;33.594;-117.718;2023-05-07T00:54:16;100534.28;;;18.45;52.33
16525;BME280;8375;33.594;-117.718;2023-05-07T00:56:46;100529.84;;;18.54;53.49
16525;BME280;8375;33.594;-117.718;2023-05-07T00:59:16;100532.00;;;18.67;53.67
16525;BME280;8375;33.594;-117.718;2023-05-07T01:01:45;100537.72;;;18.54;51.98
16525;BME280;8375;33.594;-117.718;2023-05-07T01:04:14;100534.75;;;18.40;51.89
16525;BME280;8375;33.594;-117.718;2023-05-07T01:06:44;100535.91;;;18.38;53.08
16525;BME280;8375;33.594;-117.718;2023-05-07T01:09:13;100538.19;;;18.24;53.51
16525;BME280;8375;33.594;-117.718;2023-05-07T01:11:42;100538.84;;;18.26;54.95
16525;BME280;8375;33.594;-117.718;2023-05-07T01:14:11;100535.66;;;18.14;54.67
16525;BME280;8375;33.594;-117.718;2023-05-07T01:16:42;100537.22;;;17.99;56.11
16525;BME280;8375;33.594;-117.718;2023-05-07T01:19:11;100544.94;;;17.92;56.07
16525;BME280;8375;33.594;-117.718;2023-05-07T01:21:45;100545.88;;;17.83;57.25
16525;BME280;8375;33.594;-117.718;2023-05-07T01:24:16;100545.22;;;17.54;58.32
16525;BME280;8375;33.594;-117.718;2023-05-07T01:26:46;100545.19;;;17.46;59.02
16525;BME280;8375;33.594;-117.718;2023-05-07T01:29:15;100546.94;;;17.37;59.46
16525;BME280;8375;33.594;-117.718;2023-05-07T01:31:44;100544.25;;;17.29;59.52
16525;BME280;8375;33.594;-117.718;2023-05-07T01:34:13;100542.75;;;17.26;60.17
16525;BME280;8375;33.594;-117.718;2023-05-07T01:36:45;100547.50;;;17.23;60.30
16525;BME280;8375;33.594;-117.718;2023-05-07T01:39:17;100555.97;;;17.17;60.10
16525;BME280;8375;33.594;-117.718;2023-05-07T01:41:47;100551.66;;;17.07;60.58
16525;BME280;8375;33.594;-117.718;2023-05-07T01:44:16;100554.47;;;16.96;59.80
16525;BME280;8375;33.594;-117.718;2023-05-07T01:46:47;100561.91;;;16.82;60.26
16525;BME280;8375;33.594;-117.718;2023-05-07T01:49:17;100559.22;;;16.74;62.23
16525;BME280;8375;33.594;-117.718;2023-05-07T01:51:46;100561.38;;;16.61;64.04
16525;BME280;8375;33.594;-117.718;2023-05-07T01:54:17;100568.84;;;16.55;65.02
16525;BME280;8375;33.594;-117.718;2023-05-07T01:56:47;100566.84;;;16.49;65.27
16525;BME280;8375;33.594;-117.718;2023-05-07T01:59:16;100564.41;;;16.38;66.98
16525;BME280;8375;33.594;-117.718;2023-05-07T02:01:44;100570.38;;;16.30;68.09
16525;BME280;8375;33.594;-117.718;2023-05-07T02:04:14;100580.75;;;16.22;69.96
16525;BME280;8375;33.594;-117.718;2023-05-07T02:06:42;100577.94;;;16.05;71.31
16525;BME280;8375;33.594;-117.718;2023-05-07T02:09:11;100570.94;;;16.06;71.86
16525;BME280;8375;33.594;-117.718;2023-05-07T02:11:43;100579.50;;;15.88;72.29
16525;BME280;8375;33.594;-117.718;2023-05-07T02:14:11;100582.81;;;15.80;73.66
16525;BME280;8375;33.594;-117.718;2023-05-07T02:16:40;100588.22;;;15.69;75.16
16525;BME280;8375;33.594;-117.718;2023-05-07T02:19:08;100590.28;;;15.65;75.22
16525;BME280;8375;33.594;-117.718;2023-05-07T02:21:37;100592.38;;;15.62;76.47
16525;BME280;8375;33.594;-117.718;2023-05-07T02:24:06;100591.53;;;15.61;75.97
16525;BME280;8375;33.594;-117.718;2023-05-07T02:26:35;100593.34;;;15.51;76.63
16525;BME280;8375;33.594;-117.718;2023-05-07T02:29:05;100599.44;;;15.42;76.20
16525;BME280;8375;33.594;-117.718;2023-05-07T02:31:34;100592.81;;;15.37;76.19
16525;BME280;8375;33.594;-117.718;2023-05-07T02:34:02;100606.34;;;15.33;76.38
16525;BME280;8375;33.594;-117.718;2023-05-07T02:36:31;100599.84;;;15.27;78.48
16525;BME280;8375;33.594;-117.718;2023-05-07T02:39:00;100607.44;;;15.20;77.57
16525;BME280;8375;33.594;-117.718;2023-05-07T02:41:29;100610.88;;;15.21;78.17
16525;BME280;8375;33.594;-117.718;2023-05-07T02:43:57;100603.97;;;15.39;80.32
16525;BME280;8375;33.594;-117.718;2023-05-07T02:46:28;100610.59;;;15.44;75.86
16525;BME280;8375;33.594;-117.718;2023-05-07T02:48:56;100618.72;;;15.40;75.56
16525;BME280;8375;33.594;-117.718;2023-05-07T02:51:26;100610.44;;;15.35;74.05
16525;BME280;8375;33.594;-117.718;2023-05-07T02:53:55;100614.75;;;15.27;73.27
16525;BME280;8375;33.594;-117.718;2023-05-07T02:56:25;100619.69;;;15.20;73.20
16525;BME280;8375;33.594;-117.718;2023-05-07T02:58:54;100628.06;;;15.14;73.53
16525;BME280;8375;33.594;-117.718;2023-05-07T03:01:23;100619.97;;;15.07;74.22
16525;BME280;8375;33.594;-117.718;2023-05-07T03:03:54;100623.81;;;14.93;74.90
16525;BME280;8375;33.594;-117.718;2023-05-07T03:06:24;100628.19;;;14.82;74.52
16525;BME280;8375;33.594;-117.718;2023-05-07T03:08:52;100628.81;;;14.65;75.91
16525;BME280;8375;33.594;-117.718;2023-05-07T03:11:21;100627.16;;;14.64;76.66
16525;BME280;8375;33.594;-117.718;2023-05-07T03:13:50;100628.00;;;14.64;76.90
16525;BME280;8375;33.594;-117.718;2023-05-07T03:16:18;100629.94;;;14.62;76.77
16525;BME280;8375;33.594;-117.718;2023-05-07T03:18:47;100631.00;;;14.60;76.26
16525;BME280;8375;33.594;-117.718;2023-05-07T03:21:18;100634.84;;;14.56;77.66
16525;BME280;8375;33.594;-117.718;2023-05-07T03:23:47;100628.66;;;14.57;77.28
16525;BME280;8375;33.594;-117.718;2023-05-07T03:26:15;100631.28;;;14.57;77.20
16525;BME280;8375;33.594;-117.718;2023-05-07T03:28:44;100633.19;;;14.55;78.06
16525;BME280;8375;33.594;-117.718;2023-05-07T03:31:13;100633.88;;;14.57;77.79
16525;BME280;8375;33.594;-117.718;2023-05-07T03:33:50;100632.75;;;14.49;78.30
16525;BME280;8375;33.594;-117.718;2023-05-07T03:36:22;100628.50;;;14.48;78.77
16525;BME280;8375;33.594;-117.718;2023-05-07T03:38:51;100632.91;;;14.48;79.15
16525;BME280;8375;33.594;-117.718;2023-05-07T03:41:20;100629.03;;;14.42;79.10
16525;BME280;8375;33.594;-117.718;2023-05-07T03:43:49;100637.81;;;14.41;78.92
16525;BME280;8375;33.594;-117.718;2023-05-07T03:46:18;100634.09;;;14.34;79.70
16525;BME280;8375;33.594;-117.718;2023-05-07T03:48:46;100634.63;;;14.28;80.06
16525;BME280;8375;33.594;-117.718;2023-05-07T03:51:15;100644.25;;;14.27;79.99
16525;BME280;8375;33.594;-117.718;2023-05-07T03:53:46;100634.59;;;14.18;80.71
16525;BME280;8375;33.594;-117.718;2023-05-07T03:56:14;100639.81;;;14.18;80.70
16525;BME280;8375;33.594;-117.718;2023-05-07T03:58:43;100647.06;;;14.14;80.88
16525;BME280;8375;33.594;-117.718;2023-05-07T04:01:12;100644.97;;;14.08;81.28
16525;BME280;8375;33.594;-117.718;2023-05-07T04:03:40;100637.56;;;14.03;80.50
16525;BME280;8375;33.594;-117.718;2023-05-07T04:06:09;100643.41;;;13.96;81.53
16525;BME280;8375;33.594;-117.718;2023-05-07T04:08:38;100648.63;;;13.96;81.80
16525;BME280;8375;33.594;-117.718;2023-05-07T04:11:09;100638.31;;;13.94;82.55
16525;BME280;8375;33.594;-117.718;2023-05-07T04:13:37;100642.16;;;13.90;82.90
16525;BME280;8375;33.594;-117.718;2023-05-07T04:16:06;100650.34;;;13.85;83.23
16525;BME280;8375;33.594;-117.718;2023-05-07T04:18:35;100647.75;;;13.85;83.21
16525;BME280;8375;33.594;-117.718;2023-05-07T04:21:04;100644.00;;;13.78;83.90
16525;BME280;8375;33.594;-117.718;2023-05-07T04:23:33;100643.28;;;13.76;84.02
16525;BME280;8375;33.594;-117.718;2023-05-07T04:26:01;100641.19;;;13.70;84.66
16525;BME280;8375;33.594;-117.718;2023-05-07T04:28:32;100641.44;;;13.67;84.57
16525;BME280;8375;33.594;-117.718;2023-05-07T04:31:00;100640.88;;;13.63;84.47
16525;BME280;8375;33.594;-117.718;2023-05-07T04:33:29;100645.78;;;13.56;84.70
16525;BME280;8375;33.594;-117.718;2023-05-07T04:35:58;100644.97;;;13.56;85.15
16525;BME280;8375;33.594;-117.718;2023-05-07T04:38:30;100653.84;;;13.53;85.47
16525;BME280;8375;33.594;-117.718;2023-05-07T04:41:03;100653.41;;;13.48;85.41
16525;BME280;8375;33.594;-117.718;2023-05-07T04:43:34;100649.13;;;13.47;85.09
16525;BME280;8375;33.594;-117.718;2023-05-07T04:46:04;100659.22;;;13.40;85.12
16525;BME280;8375;33.594;-117.718;2023-05-07T04:48:34;100655.47;;;13.33;85.95
16525;BME280;8375;33.594;-117.718;2023-05-07T04:51:03;100656.66;;;13.29;86.36
16525;BME280;8375;33.594;-117.718;2023-05-07T04:53:31;100644.09;;;13.23;86.91
16525;BME280;8375;33.594;-117.718;2023-05-07T04:56:00;100647.66;;;13.21;87.27
16525;BME280;8375;33.594;-117.718;2023-05-07T04:58:29;100651.34;;;13.19;87.16
16525;BME280;8375;33.594;-117.718;2023-05-07T05:01:00;100652.41;;;13.16;87.48
16525;BME280;8375;33.594;-117.718;2023-05-07T05:03:29;100653.38;;;13.15;88.06
16525;BME280;8375;33.594;-117.718;2023-05-07T05:05:58;100657.56;;;13.06;89.11
16525;BME280;8375;33.594;-117.718;2023-05-07T05:08:27;100662.88;;;13.05;89.05
16525;BME280;8375;33.594;-117.718;2023-05-07T05:10:56;100664.78;;;13.03;89.32
16525;BME280;8375;33.594;-117.718;2023-05-07T05:13:24;100665.88;;;13.00;88.90
16525;BME280;8375;33.594;-117.718;2023-05-07T05:15:53;100668.72;;;12.97;88.87
16525;BME280;8375;33.594;-117.718;2023-05-07T05:18:24;100661.38;;;12.91;89.43
16525;BME280;8375;33.594;-117.718;2023-05-07T05:20:52;100662.44;;;12.88;89.54
16525;BME280;8375;33.594;-117.718;2023-05-07T05:23:21;100662.56;;;12.87;90.21
16525;BME280;8375;33.594;-117.718;2023-05-07T05:25:49;100656.66;;;12.85;90.33
16525;BME280;8375;33.594;-117.718;2023-05-07T05:28:18;100662.34;;;12.79;90.74
16525;BME280;8375;33.594;-117.718;2023-05-07T05:30:47;100651.09;;;12.78;91.30
16525;BME280;8375;33.594;-117.718;2023-05-07T05:33:15;100646.13;;;12.75;91.36
16525;BME280;8375;33.594;-117.718;2023-05-07T05:35:46;100649.94;;;12.71;91.72
16525;BME280;8375;33.594;-117.718;2023-05-07T05:38:14;100652.44;;;12.72;91.11
16525;BME280;8375;33.594;-117.718;2023-05-07T05:40:43;100651.00;;;12.68;90.80
16525;BME280;8375;33.594;-117.718;2023-05-07T05:43:12;100652.91;;;12.66;91.46
16525;BME280;8375;33.594;-117.718;2023-05-07T05:45:40;100648.50;;;12.67;91.83
16525;BME280;8375;33.594;-117.718;2023-05-07T05:48:09;100648.03;;;12.61;91.83
16525;BME280;8375;33.594;-117.718;2023-05-07T05:50:38;100647.22;;;12.61;92.71
16525;BME280;8375;33.594;-117.718;2023-05-07T05:53:08;100635.88;;;12.62;93.24
16525;BME280;8375;33.594;-117.718;2023-05-07T05:55:37;100637.88;;;12.58;92.78
16525;BME280;8375;33.594;-117.718;2023-05-07T05:58:06;100632.09;;;12.55;93.71
16525;BME280;8375;33.594;-117.718;2023-05-07T06:00:35;100629.00;;;12.50;94.18
16525;BME280;8375;33.594;-117.718;2023-05-07T06:03:04;100628.31;;;12.47;94.18
16525;BME280;8375;33.594;-117.718;2023-05-07T06:05:33;100626.19;;;12.41;94.24
16525;BME280;8375;33.594;-117.718;2023-05-07T06:08:02;100627.38;;;12.37;94.19
16525;BME280;8375;33.594;-117.718;2023-05-07T06:10:33;100629.13;;;12.37;94.12
16525;BME280;8375;33.594;-117.718;2023-05-07T06:13:02;100625.94;;;12.33;94.33
16525;BME280;8375;33.594;-117.718;2023-05-07T06:15:31;100629.50;;;12.32;94.33
16525;BME280;8375;33.594;-117.718;2023-05-07T06:17:59;100630.69;;;12.28;94.54
16525;BME280;8375;33.594;-117.718;2023-05-07T06:20:28;100626.44;;;12.27;94.88
16525;BME280;8375;33.594;-117.718;2023-05-07T06:22:57;100625.59;;;12.26;94.67
16525;BME280;8375;33.594;-117.718;2023-05-07T06:25:25;100623.34;;;12.22;94.71
16525;BME280;8375;33.594;-117.718;2023-05-07T06:27:56;100621.69;;;12.21;94.83
16525;BME280;8375;33.594;-117.718;2023-05-07T06:30:24;100626.75;;;12.22;95.58
16525;BME280;8375;33.594;-117.718;2023-05-07T06:32:53;100618.63;;;12.15;95.37
16525;BME280;8375;33.594;-117.718;2023-05-07T06:35:22;100621.47;;;12.12;95.54
16525;BME280;8375;33.594;-117.718;2023-05-07T06:37:51;100619.81;;;12.11;95.76
16525;BME280;8375;33.594;-117.718;2023-05-07T06:40:19;100631.88;;;12.12;95.89
16525;BME280;8375;33.594;-117.718;2023-05-07T06:42:48;100632.09;;;12.09;95.95
16525;BME280;8375;33.594;-117.718;2023-05-07T06:45:19;100627.13;;;12.06;96.39
16525;BME280;8375;33.594;-117.718;2023-05-07T06:47:48;100629.97;;;12.14;97.51
16525;BME280;8375;33.594;-117.718;2023-05-07T06:50:17;100620.84;;;12.09;97.03
16525;BME280;8375;33.594;-117.718;2023-05-07T06:52:45;100626.19;;;12.07;96.81
16525;BME280;8375;33.594;-117.718;2023-05-07T06:55:14;100618.72;;;12.02;96.80
16525;BME280;8375;33.594;-117.718;2023-05-07T06:57:43;100623.44;;;12.09;97.84
16525;BME280;8375;33.594;-117.718;2023-05-07T07:00:13;100623.69;;;12.06;97.61
16525;BME280;8375;33.594;-117.718;2023-05-07T07:02:43;100617.19;;;12.00;97.60
16525;BME280;8375;33.594;-117.718;2023-05-07T07:05:12;100615.59;;;11.97;97.77
16525;BME280;8375;33.594;-117.718;2023-05-07T07:07:40;100622.69;;;11.95;98.13
16525;BME280;8375;33.594;-117.718;2023-05-07T07:10:09;100618.66;;;11.91;98.08
16525;BME280;8375;33.594;-117.718;2023-05-07T07:12:38;100617.41;;;11.97;99.36
16525;BME280;8375;33.594;-117.718;2023-05-07T07:15:08;100615.75;;;11.96;98.76
16525;BME280;8375;33.594;-117.718;2023-05-07T07:17:36;100615.97;;;11.93;98.67
16525;BME280;8375;33.594;-117.718;2023-05-07T07:20:08;100616.44;;;11.86;98.03
16525;BME280;8375;33.594;-117.718;2023-05-07T07:22:37;100610.75;;;11.81;98.12
16525;BME280;8375;33.594;-117.718;2023-05-07T07:25:06;100614.53;;;11.77;98.14
16525;BME280;8375;33.594;-117.718;2023-05-07T07:27:35;100614.75;;;11.74;98.29
16525;BME280;8375;33.594;-117.718;2023-05-07T07:30:05;100616.66;;;11.72;98.46
16525;BME280;8375;33.594;-117.718;2023-05-07T07:32:34;100614.03;;;11.72;98.39
16525;BME280;8375;33.594;-117.718;2023-05-07T07:35:03;100614.75;;;11.74;99.53
16525;BME280;8375;33.594;-117.718;2023-05-07T07:37:34;100607.91;;;11.73;99.36
16525;BME280;8375;33.594;-117.718;2023-05-07T07:40:03;100608.72;;;11.73;99.53
16525;BME280;8375;33.594;-117.718;2023-05-07T07:42:32;100610.84;;;11.68;99.86
16525;BME280;8375;33.594;-117.718;2023-05-07T07:45:00;100608.69;;;11.62;98.95
16525;BME280;8375;33.594;-117.718;2023-05-07T07:47:29;100611.28;;;11.62;99.36
16525;BME280;8375;33.594;-117.718;2023-05-07T07:49:58;100606.44;;;11.57;98.96
16525;BME280;8375;33.594;-117.718;2023-05-07T07:52:27;100606.56;;;11.56;99.61
16525;BME280;8375;33.594;-117.718;2023-05-07T07:54:57;100605.50;;;11.58;100.00
16525;BME280;8375;33.594;-117.718;2023-05-07T07:57:26;100600.63;;;11.54;100.00
16525;BME280;8375;33.594;-117.718;2023-05-07T07:59:55;100597.09;;;11.55;100.00
16525;BME280;8375;33.594;-117.718;2023-05-07T08:02:24;100600.78;;;11.52;100.00
16525;BME280;8375;33.594;-117.718;2023-05-07T08:04:52;100600.06;;;11.50;100.00
16525;BME280;8375;33.594;-117.718;2023-05-07T08:07:21;100593.91;;;11.51;100.00
16525;BME280;8375;33.594;-117.718;2023-05-07T08:09:50;100598.25;;;11.51;100.00
16525;BME280;8375;33.594;-117.718;2023-05-07T08:12:21;100595.66;;;11.51;100.00
16525;BME280;8375;33.594;-117.718;2023-05-07T08:14:49;100600.28;;;11.47;100.00
16525;BME280;8375;33.594;-117.718;2023-05-07T08:17:18;100589.16;;;11.45;100.00
16525;BME280;8375;33.594;-117.718;2023-05-07T08:19:48;100596.59;;;11.50;100.00
16525;BME280;8375;33.594;-117.718;2023-05-07T08:22:17;100597.31;;;11.52;100.00
16525;BME280;8375;33.594;-117.718;2023-05-07T08:24:46;100584.31;;;11.52;100.00
16525;BME280;8375;33.594;-117.718;2023-05-07T08:27:14;100584.44;;;11.50;100.00
16525;BME280;8375;33.594;-117.718;2023-05-07T08:29:45;100578.88;;;11.43;100.00
16525;BME280;8375;33.594;-117.718;2023-05-07T08:32:14;100583.00;;;11.35;100.00
16525;BME280;8375;33.594;-117.718;2023-05-07T08:34:43;100576.38;;;11.30;100.00
16525;BME280;8375;33.594;-117.718;2023-05-07T08:37:12;100581.88;;;11.26;100.00
16525;BME280;8375;33.594;-117.718;2023-05-07T08:39:41;100582.47;;;11.18;99.66
16525;BME280;8375;33.594;-117.718;2023-05-07T08:42:11;100589.78;;;11.13;99.75
16525;BME280;8375;33.594;-117.718;2023-05-07T08:44:44;100588.13;;;11.12;100.00
16525;BME280;8375;33.594;-117.718;2023-05-07T08:47:14;100581.25;;;11.11;100.00
16525;BME280;8375;33.594;-117.718;2023-05-07T08:49:43;100580.53;;;11.09;100.00
16525;BME280;8375;33.594;-117.718;2023-05-07T08:52:12;100573.19;;;11.03;100.00
16525;BME280;8375;33.594;-117.718;2023-05-07T08:54:41;100574.38;;;10.98;100.00
16525;BME280;8375;33.594;-117.718;2023-05-07T08:57:10;100569.38;;;10.95;100.00
16525;BME280;8375;33.594;-117.718;2023-05-07T08:59:39;100559.09;;;10.94;100.00
16525;BME280;8375;33.594;-117.718;2023-05-07T09:02:10;100555.69;;;10.93;100.00
16525;BME280;8375;33.594;-117.718;2023-05-07T09:04:39;100555.91;;;10.90;100.00
16525;BME280;8375;33.594;-117.718;2023-05-07T09:07:08;100557.06;;;10.86;100.00
16525;BME280;8375;33.594;-117.718;2023-05-07T09:09:37;100556.22;;;10.85;100.00
16525;BME280;8375;33.594;-117.718;2023-05-07T09:12:06;100552.38;;;10.91;100.00
16525;BME280;8375;33.594;-117.718;2023-05-07T09:14:36;100546.25;;;10.92;100.00
16525;BME280;8375;33.594;-117.718;2023-05-07T09:17:05;100552.47;;;10.90;100.00
16525;BME280;8375;33.594;-117.718;2023-05-07T09:19:36;100554.03;;;10.92;100.00
16525;BME280;8375;33.594;-117.718;2023-05-07T09:22:05;100545.63;;;10.89;100.00
16525;BME280;8375;33.594;-117.718;2023-05-07T09:24:35;100554.69;;;10.83;100.00
16525;BME280;8375;33.594;-117.718;2023-05-07T09:27:04;100550.66;;;10.79;100.00
16525;BME280;8375;33.594;-117.718;2023-05-07T09:29:34;100549.22;;;10.75;100.00
16525;BME280;8375;33.594;-117.718;2023-05-07T09:32:03;100546.00;;;10.71;100.00
16525;BME280;8375;33.594;-117.718;2023-05-07T09:34:35;100545.41;;;10.67;100.00
16525;BME280;8375;33.594;-117.718;2023-05-07T09:37:05;100554.16;;;10.66;100.00
16525;BME280;8375;33.594;-117.718;2023-05-07T09:39:40;100548.31;;;10.63;100.00
16525;BME280;8375;33.594;-117.718;2023-05-07T09:42:10;100560.50;;;10.62;100.00
16525;BME280;8375;33.594;-117.718;2023-05-07T09:44:39;100553.41;;;10.64;100.00
16525;BME280;8375;33.594;-117.718;2023-05-07T09:47:08;100551.88;;;10.62;100.00
16525;BME280;8375;33.594;-117.718;2023-05-07T09:49:40;100551.03;;;10.61;100.00
16525;BME280;8375;33.594;-117.718;2023-05-07T09:52:13;100553.19;;;10.67;100.00
16525;BME280;8375;33.594;-117.718;2023-05-07T09:54:43;100546.22;;;10.68;100.00
16525;BME280;8375;33.594;-117.718;2023-05-07T09:57:14;100548.00;;;10.67;100.00
16525;BME280;8375;33.594;-117.718;2023-05-07T09:59:43;100549.97;;;10.64;100.00
16525;BME280;8375;33.594;-117.718;2023-05-07T10:02:15;100553.28;;;10.66;100.00
16525;BME280;8375;33.594;-117.718;2023-05-07T10:04:46;100554.47;;;10.62;100.00
16525;BME280;8375;33.594;-117.718;2023-05-07T10:07:15;100544.78;;;10.64;100.00
16525;BME280;8375;33.594;-117.718;2023-05-07T10:09:45;100549.03;;;10.65;100.00
16525;BME280;8375;33.594;-117.718;2023-05-07T10:12:14;100543.44;;;10.58;100.00
16525;BME280;8375;33.594;-117.718;2023-05-07T10:14:44;100538.47;;;10.55;100.00
16525;BME280;8375;33.594;-117.718;2023-05-07T10:17:16;100540.56;;;10.50;100.00
16525;BME280;8375;33.594;-117.718;2023-05-07T10:19:47;100544.09;;;10.49;100.00
16525;BME280;8375;33.594;-117.718;2023-05-07T10:22:17;100542.66;;;10.45;100.00
16525;BME280;8375;33.594;-117.718;2023-05-07T10:24:48;100542.78;;;10.43;100.00
16525;BME280;8375;33.594;-117.718;2023-05-07T10:27:18;100543.59;;;10.44;100.00
16525;BME280;8375;33.594;-117.718;2023-05-07T10:29:55;100539.56;;;10.39;100.00
16525;BME280;8375;33.594;-117.718;2023-05-07T10:32:35;100541.53;;;10.36;100.00
16525;BME280;8375;33.594;-117.718;2023-05-07T10:35:11;100546.94;;;10.33;100.00
16525;BME280;8375;33.594;-117.718;2023-05-07T10:37:42;100546.09;;;10.32;100.00
16525;BME280;8375;33.594;-117.718;2023-05-07T10:40:12;100544.44;;;10.31;100.00
16525;BME280;8375;33.594;-117.718;2023-05-07T10:42:55;100554.38;;;10.37;100.00
16525;BME280;8375;33.594;-117.718;2023-05-07T10:45:25;100552.63;;;10.38;100.00
16525;BME280;8375;33.594;-117.718;2023-05-07T10:48:09;100550.78;;;10.40;100.00
16525;BME280;8375;33.594;-117.718;2023-05-07T10:50:40;100555.97;;;10.40;100.00
16525;BME280;8375;33.594;-117.718;2023-05-07T10:53:22;100552.94;;;10.33;100.00
16525;BME280;8375;33.594;-117.718;2023-05-07T10:56:25;100548.41;;;10.24;100.00
16525;BME280;8375;33.594;-117.718;2023-05-07T10:59:34;100553.81;;;10.21;100.00
16525;BME280;8375;33.594;-117.718;2023-05-07T11:02:08;100551.63;;;10.15;100.00
16525;BME280;8375;33.594;-117.718;2023-05-07T11:04:38;100543.34;;;10.09;100.00
16525;BME280;8375;33.594;-117.718;2023-05-07T11:07:36;100541.16;;;10.16;100.00
16525;BME280;8375;33.594;-117.718;2023-05-07T11:10:05;100547.16;;;10.17;100.00
16525;BME280;8375;33.594;-117.718;2023-05-07T11:12:53;100546.44;;;10.15;100.00
16525;BME280;8375;33.594;-117.718;2023-05-07T11:15:39;100548.44;;;10.11;100.00
16525;BME280;8375;33.594;-117.718;2023-05-07T11:18:08;100548.75;;;10.06;100.00
16525;BME280;8375;33.594;-117.718;2023-05-07T11:20:55;100546.34;;;10.03;100.00
16525;BME280;8375;33.594;-117.718;2023-05-07T11:23:57;100542.31;;;9.99;100.00
16525;BME280;8375;33.594;-117.718;2023-05-07T11:26:27;100542.44;;;9.97;100.00
16525;BME280;8375;33.594;-117.718;2023-05-07T11:28:56;100549.38;;;9.97;100.00
16525;BME280;8375;33.594;-117.718;2023-05-07T11:31:27;100545.97;;;9.96;100.00
16525;BME280;8375;33.594;-117.718;2023-05-07T11:33:56;100537.47;;;9.94;100.00
16525;BME280;8375;33.594;-117.718;2023-05-07T11:36:26;100541.09;;;9.92;100.00
16525;BME280;8375;33.594;-117.718;2023-05-07T11:38:54;100542.75;;;9.93;100.00
16525;BME280;8375;33.594;-117.718;2023-05-07T11:41:34;100542.94;;;9.90;100.00
16525;BME280;8375;33.594;-117.718;2023-05-07T11:44:03;100543.06;;;9.88;100.00
16525;BME280;8375;33.594;-117.718;2023-05-07T11:46:32;100539.84;;;9.84;100.00
16525;BME280;8375;33.594;-117.718;2023-05-07T11:49:02;100535.59;;;9.83;100.00
16525;BME280;8375;33.594;-117.718;2023-05-07T11:51:31;100532.41;;;9.80;100.00
16525;BME280;8375;33.594;-117.718;2023-05-07T11:53:59;100525.63;;;9.77;100.00
16525;BME280;8375;33.594;-117.718;2023-05-07T11:56:31;100521.59;;;9.73;100.00
16525;BME280;8375;33.594;-117.718;2023-05-07T11:59:02;100521.81;;;9.70;100.00
16525;BME280;8375;33.594;-117.718;2023-05-07T12:01:31;100522.00;;;9.67;100.00
16525;BME280;8375;33.594;-117.718;2023-05-07T12:04:03;100525.75;;;9.76;100.00
16525;BME280;8375;33.594;-117.718;2023-05-07T12:06:36;100523.91;;;9.78;100.00
16525;BME280;8375;33.594;-117.718;2023-05-07T12:09:06;100535.28;;;9.75;100.00
16525;BME280;8375;33.594;-117.718;2023-05-07T12:11:39;100535.50;;;9.72;100.00
16525;BME280;8375;33.594;-117.718;2023-05-07T12:14:08;100520.34;;;9.66;100.00
16525;BME280;8375;33.594;-117.718;2023-05-07T12:16:37;100528.47;;;9.61;100.00
16525;BME280;8375;33.594;-117.718;2023-05-07T12:19:06;100528.66;;;9.58;100.00
16525;BME280;8375;33.594;-117.718;2023-05-07T12:21:39;100530.63;;;9.54;100.00
16525;BME280;8375;33.594;-117.718;2023-05-07T12:24:08;100527.63;;;9.48;100.00
16525;BME280;8375;33.594;-117.718;2023-05-07T12:26:40;100534.47;;;9.49;100.00
16525;BME280;8375;33.594;-117.718;2023-05-07T12:29:09;100540.06;;;9.56;100.00
16525;BME280;8375;33.594;-117.718;2023-05-07T12:31:40;100539.63;;;9.62;100.00
16525;BME280;8375;33.594;-117.718;2023-05-07T12:34:11;100540.50;;;9.62;100.00
16525;BME280;8375;33.594;-117.718;2023-05-07T12:36:40;100533.22;;;9.54;100.00
16525;BME280;8375;33.594;-117.718;2023-05-07T12:39:09;100540.47;;;9.49;100.00
16525;BME280;8375;33.594;-117.718;2023-05-07T12:44:35;100544.81;;;9.36;100.00
16525;BME280;8375;33.594;-117.718;2023-05-07T12:47:04;100551.75;;;9.35;100.00